Time;durP1;ratioP1;P1;durP2;ratioP2;P2;SDS_P1;SDS_P2;PMS_P1;PMS_P2;Temp;Humidity;BMP_temperature;BMP_pressure;BME280_temperature;BME280_humidity;BME280_pressure;Samples;Min_cycle;Max_cycle;Signal;HPM_P1;HPM_P2
2023/12/14 00:01:14;;;;;;;74.88;26.42;;;;;;;-143.54;100.00;59916.91;5099223;28;20026;-79
2023/12/14 00:03:46;;;;;;;68.90;26.33;;;;;;;-143.54;100.00;59916.91;5103118;28;20036;-79
2023/12/14 00:06:13;;;;;;;70.07;25.80;;;;;;;-143.54;100.00;59916.91;5099688;28;20055;-79
2023/12/14 00:08:38;;;;;;;67.65;25.25;;;;;;;-143.54;100.00;59916.91;5102334;28;20038;-78
2023/12/14 00:11:09;;;;;;;65.18;23.67;;;;;;;-143.54;100.00;59916.91;5095411;28;20020;-78
2023/12/14 00:13:34;;;;;;;60.83;23.65;;;;;;;-143.54;100.00;59916.91;5102449;28;20024;-79
2023/12/14 00:16:00;;;;;;;52.67;21.90;;;;;;;-143.54;100.00;59916.91;5099905;28;20433;-78
2023/12/14 00:18:25;;;;;;;48.15;19.65;;;;;;;-143.54;100.00;59916.91;5098672;28;20035;-79
2023/12/14 00:20:52;;;;;;;46.10;19.98;;;;;;;-143.54;100.00;59916.91;5104832;28;20487;-79
2023/12/14 00:23:17;;;;;;;46.72;20.20;;;;;;;-143.54;100.00;59916.91;5096352;28;20020;-79
2023/12/14 00:25:42;;;;;;;49.08;20.48;;;;;;;-143.54;100.00;59916.91;5104956;28;20390;-79
2023/12/14 00:28:08;;;;;;;48.38;20.70;;;;;;;-143.54;100.00;59916.91;5095418;28;20028;-79
2023/12/14 00:30:33;;;;;;;48.33;19.73;;;;;;;-143.54;100.00;59916.91;5102833;28;20015;-79
2023/12/14 00:32:58;;;;;;;46.38;20.38;;;;;;;-143.54;100.00;59916.91;5097620;28;20368;-79
2023/12/14 00:35:23;;;;;;;46.83;20.60;;;;;;;-143.54;100.00;59916.91;5095170;28;20032;-79
2023/12/14 00:37:49;;;;;;;52.42;20.88;;;;;;;-143.54;100.00;59916.91;5099547;28;20119;-79
2023/12/14 00:40:14;;;;;;;48.67;19.40;;;;;;;-143.54;100.00;59916.91;5105807;28;20024;-79
2023/12/14 00:42:39;;;;;;;49.58;20.15;;;;;;;-143.54;100.00;59916.91;5100846;28;20086;-79
2023/12/14 00:45:06;;;;;;;48.25;20.40;;;;;;;-143.54;100.00;59916.91;5105677;28;20044;-79
2023/12/14 00:47:31;;;;;;;50.67;20.25;;;;;;;-143.54;100.00;59916.91;5101033;28;20055;-79
2023/12/14 00:49:57;;;;;;;53.28;21.05;;;;;;;-143.54;100.00;59916.91;5097440;28;20055;-79
2023/12/14 00:52:22;;;;;;;56.85;22.60;;;;;;;-143.54;100.00;59916.91;5103493;28;20081;-79
2023/12/14 00:54:47;;;;;;;57.47;21.58;;;;;;;-143.54;100.00;59916.91;5098417;28;20066;-78
2023/12/14 00:57:12;;;;;;;54.58;22.08;;;;;;;-143.54;100.00;59916.91;5103893;28;20486;-79
2023/12/14 00:59:38;;;;;;;54.40;22.08;;;;;;;-143.54;100.00;59916.91;5098122;28;20128;-79
2023/12/14 01:02:03;;;;;;;62.22;22.88;;;;;;;-143.54;100.00;59916.91;5103050;28;20028;-79
2023/12/14 01:04:28;;;;;;;54.75;20.38;;;;;;;-143.54;100.00;59916.91;5107427;28;20019;-79
2023/12/14 01:06:54;;;;;;;58.88;22.27;;;;;;;-143.54;100.00;59916.91;5099971;28;20040;-79
2023/12/14 01:09:19;;;;;;;58.35;21.75;;;;;;;-143.54;100.00;59916.91;5103061;28;20483;-79
2023/12/14 01:11:44;;;;;;;58.67;21.63;;;;;;;-143.54;100.00;59916.91;5108434;28;20042;-79
2023/12/14 01:14:10;;;;;;;57.38;22.38;;;;;;;-143.54;100.00;59916.91;5102315;28;20078;-79
2023/12/14 01:16:35;;;;;;;54.38;20.90;;;;;;;-143.54;100.00;59916.91;5102947;28;20073;-79
2023/12/14 01:19:00;;;;;;;53.67;21.02;;;;;;;-143.54;100.00;59916.91;5102852;28;20019;-79
2023/12/14 01:21:25;;;;;;;59.80;21.27;;;;;;;-143.54;100.00;59916.91;5101185;28;20463;-79
2023/12/14 01:23:52;;;;;;;55.25;21.45;;;;;;;-143.54;100.00;59916.91;5105631;28;20084;-79
2023/12/14 01:26:18;;;;;;;54.40;20.83;;;;;;;-143.54;100.00;59916.91;5104349;28;20029;-79
2023/12/14 01:28:43;;;;;;;55.95;20.35;;;;;;;-143.54;100.00;59916.91;5096996;28;20479;-79
2023/12/14 01:31:08;;;;;;;49.53;19.02;;;;;;;-143.54;100.00;59916.91;5107527;28;20107;-79
2023/12/14 01:33:34;;;;;;;47.55;18.75;;;;;;;-143.54;100.00;59916.91;5100640;28;20023;-79
2023/12/14 01:35:59;;;;;;;45.47;18.65;;;;;;;-143.54;100.00;59916.91;5102655;28;20028;-79
2023/12/14 01:38:26;;;;;;;39.55;17.55;;;;;;;-143.54;100.00;59916.91;5093760;28;20032;-79
2023/12/14 01:40:51;;;;;;;43.30;17.98;;;;;;;-143.54;100.00;59916.91;5106968;28;20024;-79
2023/12/14 01:43:16;;;;;;;48.85;18.83;;;;;;;-143.54;100.00;59916.91;5094001;28;20020;-79
2023/12/14 01:45:41;;;;;;;43.47;18.02;;;;;;;-143.54;100.00;59916.91;5096957;28;20028;-79
2023/12/14 01:48:07;;;;;;;42.30;18.45;;;;;;;-143.54;100.00;59916.91;5094089;28;20034;-79
2023/12/14 01:50:32;;;;;;;42.38;18.20;;;;;;;-143.54;100.00;59916.91;5098448;28;20035;-79
2023/12/14 01:52:58;;;;;;;40.35;18.23;;;;;;;-143.54;100.00;59916.91;5098369;28;20026;-80
2023/12/14 01:55:23;;;;;;;39.80;17.77;;;;;;;-143.54;100.00;59916.91;5102500;28;20027;-79
2023/12/14 01:57:48;;;;;;;41.40;17.77;;;;;;;-143.54;100.00;59916.91;5101840;28;20086;-79
2023/12/14 02:00:35;;;;;;;41.63;17.55;;;;;;;-143.54;100.00;59916.91;5096052;28;20030;-79
2023/12/14 02:03:00;;;;;;;35.97;16.40;;;;;;;-143.54;100.00;59916.91;5103968;28;20028;-79
2023/12/14 02:05:25;;;;;;;35.88;16.45;;;;;;;-143.54;100.00;59916.91;5101388;28;20027;-79
2023/12/14 02:07:51;;;;;;;35.33;15.85;;;;;;;-143.54;100.00;59916.91;5101698;28;20027;-79
2023/12/14 02:10:16;;;;;;;35.47;15.88;;;;;;;-143.54;100.00;59916.91;5100864;28;20376;-79
2023/12/14 02:12:41;;;;;;;32.80;15.85;;;;;;;-143.54;100.00;59916.91;5101942;28;20020;-79
2023/12/14 02:15:07;;;;;;;36.30;15.63;;;;;;;-143.54;100.00;59916.91;5103080;28;20031;-79
2023/12/14 02:17:32;;;;;;;31.23;15.18;;;;;;;-143.54;100.00;59916.91;5097780;28;20028;-79
2023/12/14 02:19:59;;;;;;;36.05;16.83;;;;;;;-143.54;100.00;59916.91;5100734;28;20043;-79
2023/12/14 02:22:24;;;;;;;29.52;14.85;;;;;;;-143.54;100.00;59916.91;5105533;28;20492;-79
2023/12/14 02:24:50;;;;;;;31.40;15.07;;;;;;;-143.54;100.00;59916.91;5099263;28;20483;-79
2023/12/14 02:27:15;;;;;;;29.33;15.18;;;;;;;-143.54;100.00;59916.91;5098818;28;20036;-79
2023/12/14 02:29:40;;;;;;;33.92;15.40;;;;;;;-143.54;100.00;59916.91;5100853;28;20034;-79
2023/12/14 02:32:06;;;;;;;35.70;15.43;;;;;;;-143.54;100.00;59916.91;5101341;28;20038;-79
2023/12/14 02:34:31;;;;;;;28.85;14.82;;;;;;;-143.54;100.00;59916.91;5098133;28;20050;-79
2023/12/14 02:36:56;;;;;;;29.00;14.35;;;;;;;-143.54;100.00;59916.91;5101474;28;20028;-79
2023/12/14 02:39:22;;;;;;;30.02;15.40;;;;;;;-143.54;100.00;59916.91;5095553;28;20024;-79
2023/12/14 02:41:47;;;;;;;29.65;14.68;;;;;;;-143.54;100.00;59916.91;5102643;28;20024;-79
2023/12/14 02:44:12;;;;;;;31.77;14.57;;;;;;;-143.54;100.00;59916.91;5095514;28;20467;-79
2023/12/14 02:46:37;;;;;;;28.27;14.50;;;;;;;-143.54;100.00;59916.91;5099367;28;20066;-79
2023/12/14 02:49:03;;;;;;;34.22;15.77;;;;;;;-143.54;100.00;59916.91;5096303;28;20114;-79
2023/12/14 02:51:28;;;;;;;31.55;16.02;;;;;;;-143.54;100.00;59916.91;5099412;28;20028;-79
2023/12/14 02:53:53;;;;;;;35.38;16.40;;;;;;;-143.54;100.00;59916.91;5092101;28;20082;-79
2023/12/14 02:56:19;;;;;;;34.17;16.40;;;;;;;-143.54;100.00;59916.91;5102464;28;20028;-79
2023/12/14 02:58:44;;;;;;;35.17;17.20;;;;;;;-143.54;100.00;59916.91;5106825;28;20459;-79
2023/12/14 03:01:10;;;;;;;35.63;17.75;;;;;;;-143.54;100.00;59916.91;5099071;28;20112;-79
2023/12/14 03:03:39;;;;;;;28.15;15.05;;;;;;;-143.54;100.00;59916.91;5096150;28;20406;-79
2023/12/14 03:06:04;;;;;;;29.83;14.77;;;;;;;-143.54;100.00;59916.91;5100359;28;20483;-79
2023/12/14 03:08:30;;;;;;;30.75;15.88;;;;;;;-143.54;100.00;59916.91;5103647;28;20027;-79
2023/12/14 03:10:55;;;;;;;29.70;15.50;;;;;;;-143.54;100.00;59916.91;5093539;28;20375;-79
2023/12/14 03:13:20;;;;;;;32.17;16.58;;;;;;;-143.54;100.00;59916.91;5103698;28;20069;-79
2023/12/14 03:15:46;;;;;;;29.70;15.18;;;;;;;-143.54;100.00;59916.91;5101242;28;20028;-79
2023/12/14 03:18:12;;;;;;;32.25;15.68;;;;;;;-143.54;100.00;59916.91;5092934;28;20024;-79
2023/12/14 03:20:37;;;;;;;30.50;15.63;;;;;;;-143.54;100.00;59916.91;5097651;28;20028;-79
2023/12/14 03:23:03;;;;;;;30.30;15.18;;;;;;;-143.54;100.00;59916.91;5091703;28;20043;-79
2023/12/14 03:25:28;;;;;;;31.75;15.65;;;;;;;-143.54;100.00;59916.91;5097583;28;20058;-79
2023/12/14 03:27:53;;;;;;;33.22;16.13;;;;;;;-143.54;100.00;59916.91;5100033;28;20039;-79
2023/12/14 03:30:18;;;;;;;32.78;16.48;;;;;;;-143.54;100.00;59916.91;5097201;28;20118;-79
2023/12/14 03:32:44;;;;;;;28.30;15.68;;;;;;;-143.54;100.00;59916.91;5100185;28;20028;-79
2023/12/14 03:35:09;;;;;;;32.65;16.92;;;;;;;-143.54;100.00;59916.91;5100415;28;20066;-79
2023/12/14 03:37:35;;;;;;;29.35;15.98;;;;;;;-143.54;100.00;59916.91;5095475;28;20032;-79
2023/12/14 03:40:01;;;;;;;28.23;16.40;;;;;;;-143.54;100.00;59916.91;5094399;28;20019;-79
2023/12/14 03:42:26;;;;;;;26.88;15.25;;;;;;;-143.54;100.00;59916.91;5100651;28;20032;-79
2023/12/14 03:44:51;;;;;;;28.33;15.95;;;;;;;-143.54;100.00;59916.91;5093760;28;20020;-79
2023/12/14 03:47:17;;;;;;;29.45;16.25;;;;;;;-143.54;100.00;59916.91;5103599;28;20074;-79
2023/12/14 03:49:42;;;;;;;30.50;15.63;;;;;;;-143.54;100.00;59916.91;5095694;28;20137;-79
2023/12/14 03:52:08;;;;;;;27.60;16.05;;;;;;;-143.54;100.00;59916.91;5094101;28;20032;-79
2023/12/14 03:54:34;;;;;;;29.40;15.98;;;;;;;-143.54;100.00;59916.91;5097823;28;20114;-79
2023/12/14 03:56:59;;;;;;;30.33;16.45;;;;;;;-143.54;100.00;59916.91;5101072;28;20066;-79
2023/12/14 03:59:24;;;;;;;28.83;15.75;;;;;;;-143.54;100.00;59916.91;5103005;28;20023;-79
2023/12/14 04:01:50;;;;;;;29.17;15.70;;;;;;;-143.54;100.00;59916.91;5096443;28;20042;-79
2023/12/14 04:04:15;;;;;;;30.02;15.82;;;;;;;-143.54;100.00;59916.91;5102635;28;20028;-79
2023/12/14 04:06:40;;;;;;;30.08;16.05;;;;;;;-143.54;100.00;59916.91;5095188;28;20479;-79
2023/12/14 04:09:05;;;;;;;28.27;16.52;;;;;;;-143.54;100.00;59916.91;5095459;28;20044;-79
2023/12/14 04:11:31;;;;;;;29.73;15.40;;;;;;;-143.54;100.00;59916.91;5095442;28;20035;-79
2023/12/14 04:13:56;;;;;;;29.60;16.35;;;;;;;-143.54;100.00;59916.91;5097602;28;20020;-79
2023/12/14 04:16:22;;;;;;;26.08;15.65;;;;;;;-143.54;100.00;59916.91;5096570;28;20077;-79
2023/12/14 04:18:48;;;;;;;30.02;16.55;;;;;;;-143.54;100.00;59916.91;5103423;28;20443;-79
2023/12/14 04:21:13;;;;;;;30.33;15.77;;;;;;;-143.54;100.00;59916.91;5095814;28;20414;-79
2023/12/14 04:23:38;;;;;;;33.88;16.33;;;;;;;-143.54;100.00;59916.91;5095190;28;20093;-79
2023/12/14 04:26:04;;;;;;;31.88;17.02;;;;;;;-143.54;100.00;59916.91;5093847;28;20020;-79
2023/12/14 04:28:29;;;;;;;26.52;16.10;;;;;;;-143.54;100.00;59916.91;5102092;28;20115;-80
2023/12/14 04:30:54;;;;;;;27.40;15.25;;;;;;;-143.54;100.00;59916.91;5099841;28;20064;-79
2023/12/14 04:33:20;;;;;;;25.80;14.73;;;;;;;-143.54;100.00;59916.91;5105862;28;20394;-79
2023/12/14 04:35:45;;;;;;;27.30;15.10;;;;;;;-143.54;100.00;59916.91;5104960;28;20032;-79
2023/12/14 04:38:10;;;;;;;27.85;15.00;;;;;;;-143.54;100.00;59916.91;5102932;28;20012;-79
2023/12/14 04:40:36;;;;;;;26.52;15.38;;;;;;;-143.54;100.00;59916.91;5094007;28;20027;-79
2023/12/14 04:43:01;;;;;;;26.48;15.85;;;;;;;-143.54;100.00;59916.91;5105083;28;20415;-79
2023/12/14 04:45:27;;;;;;;27.23;15.35;;;;;;;-143.54;100.00;59916.91;5099851;28;20050;-79
2023/12/14 04:47:53;;;;;;;25.55;14.93;;;;;;;-143.54;100.00;59916.91;5093176;28;20024;-80
2023/12/14 04:50:18;;;;;;;25.23;15.63;;;;;;;-143.54;100.00;59916.91;5094789;28;20115;-79
2023/12/14 04:52:43;;;;;;;25.58;15.20;;;;;;;-143.54;100.00;59916.91;5094982;28;20028;-79
2023/12/14 04:55:08;;;;;;;27.85;16.08;;;;;;;-143.54;100.00;59916.91;5098893;28;20040;-80
2023/12/14 04:57:34;;;;;;;27.55;15.48;;;;;;;-143.54;100.00;59916.91;5097165;28;20483;-79
2023/12/14 04:59:59;;;;;;;24.52;15.73;;;;;;;-143.54;100.00;59916.91;5099861;28;20039;-79
2023/12/14 05:02:25;;;;;;;25.55;15.40;;;;;;;-143.54;100.00;59916.91;5102936;28;20027;-79
2023/12/14 05:04:50;;;;;;;27.58;15.88;;;;;;;-143.54;100.00;59916.91;5099347;28;20024;-80
2023/12/14 05:07:15;;;;;;;25.15;14.55;;;;;;;-143.54;100.00;59916.91;5097172;28;20031;-79
2023/12/14 05:09:41;;;;;;;30.60;17.10;;;;;;;-143.54;100.00;59916.91;5095875;28;20107;-79
2023/12/14 05:12:06;;;;;;;27.42;15.70;;;;;;;-143.54;100.00;59916.91;5093761;28;20110;-79
2023/12/14 05:14:32;;;;;;;31.00;17.25;;;;;;;-143.54;100.00;59916.91;5096214;28;20028;-79
2023/12/14 05:16:57;;;;;;;29.50;16.77;;;;;;;-143.54;100.00;59916.91;5099651;28;20028;-79
2023/12/14 05:19:22;;;;;;;29.52;16.52;;;;;;;-143.54;100.00;59916.91;5094677;28;20035;-79
2023/12/14 05:21:48;;;;;;;28.30;16.98;;;;;;;-143.54;100.00;59916.91;5093769;28;20020;-80
2023/12/14 05:24:13;;;;;;;29.92;16.52;;;;;;;-143.54;100.00;59916.91;5093532;28;20027;-79
2023/12/14 05:26:38;;;;;;;33.30;17.67;;;;;;;-143.54;100.00;59916.91;5100453;28;20039;-80
2023/12/14 05:29:03;;;;;;;32.58;17.45;;;;;;;-143.54;100.00;59916.91;5093855;28;20073;-79
2023/12/14 05:31:29;;;;;;;31.67;17.27;;;;;;;-143.54;100.00;59916.91;5095313;28;20032;-79
2023/12/14 05:33:54;;;;;;;31.65;17.42;;;;;;;-143.54;100.00;59916.91;5107362;28;20016;-80
2023/12/14 05:36:19;;;;;;;31.27;17.38;;;;;;;-143.54;100.00;59916.91;5101671;28;20115;-79
2023/12/14 05:38:45;;;;;;;32.17;17.63;;;;;;;-143.54;100.00;59916.91;5102982;28;20107;-79
2023/12/14 05:41:10;;;;;;;29.48;16.80;;;;;;;-143.54;100.00;59916.91;5099565;28;20470;-80
2023/12/14 05:43:36;;;;;;;32.22;17.00;;;;;;;-143.54;100.00;59916.91;5100550;28;20128;-80
2023/12/14 05:46:02;;;;;;;29.08;16.50;;;;;;;-143.54;100.00;59916.91;5098936;28;20051;-80
2023/12/14 05:48:28;;;;;;;31.08;17.15;;;;;;;-143.54;100.00;59916.91;5093549;28;20459;-80
2023/12/14 05:50:53;;;;;;;32.22;16.45;;;;;;;-143.54;100.00;59916.91;5092826;28;20019;-79
2023/12/14 05:53:18;;;;;;;28.83;16.15;;;;;;;-143.54;100.00;59916.91;5095543;28;20421;-80
2023/12/14 05:55:44;;;;;;;29.80;16.48;;;;;;;-143.54;100.00;59916.91;5093416;28;20521;-79
2023/12/14 05:58:09;;;;;;;30.65;16.88;;;;;;;-143.54;100.00;59916.91;5092493;28;20058;-79
2023/12/14 06:00:35;;;;;;;27.27;16.50;;;;;;;-143.54;100.00;59916.91;5098859;28;20020;-79
2023/12/14 06:03:01;;;;;;;32.33;16.52;;;;;;;-143.54;100.00;59916.91;5094459;28;20099;-80
2023/12/14 06:05:26;;;;;;;29.40;16.38;;;;;;;-143.54;100.00;59916.91;5099880;28;20501;-79
2023/12/14 06:07:52;;;;;;;31.23;16.73;;;;;;;-143.54;100.00;59916.91;5099844;28;20432;-80
2023/12/14 06:10:17;;;;;;;28.67;16.30;;;;;;;-143.54;100.00;59916.91;5094523;28;20028;-80
2023/12/14 06:12:43;;;;;;;27.27;15.82;;;;;;;-143.54;100.00;59916.91;5098288;28;20045;-79
2023/12/14 06:15:08;;;;;;;31.02;17.27;;;;;;;-143.54;100.00;59916.91;5093183;28;20028;-80
2023/12/14 06:17:34;;;;;;;30.10;16.38;;;;;;;-143.54;100.00;59916.91;5096112;28;20044;-79
2023/12/14 06:19:59;;;;;;;27.40;16.75;;;;;;;-143.54;100.00;59916.91;5093317;28;20027;-79
2023/12/14 06:22:26;;;;;;;27.33;16.73;;;;;;;-143.54;100.00;59916.91;5093055;28;20035;-80
2023/12/14 06:24:51;;;;;;;29.48;17.02;;;;;;;-143.54;100.00;59916.91;5096819;28;20050;-80
2023/12/14 06:27:16;;;;;;;25.92;16.15;;;;;;;-143.54;100.00;59916.91;5098489;28;20383;-80
2023/12/14 06:29:42;;;;;;;28.65;15.95;;;;;;;-143.54;100.00;59916.91;5101045;28;20036;-79
2023/12/14 06:32:07;;;;;;;31.35;16.88;;;;;;;-143.54;100.00;59916.91;5097883;28;20110;-79
2023/12/14 06:34:32;;;;;;;26.42;16.17;;;;;;;-143.54;100.00;59916.91;5099726;28;20482;-80
2023/12/14 06:36:59;;;;;;;26.90;16.38;;;;;;;-143.54;100.00;59916.91;5095996;28;20031;-79
2023/12/14 06:39:25;;;;;;;27.25;16.35;;;;;;;-143.54;100.00;59916.91;5096547;28;20387;-79
2023/12/14 06:41:52;;;;;;;28.05;16.60;;;;;;;-143.54;100.00;59916.91;5095175;28;20039;-79
2023/12/14 06:44:18;;;;;;;29.42;16.90;;;;;;;-143.54;100.00;59916.91;5101750;28;20472;-79
2023/12/14 06:46:43;;;;;;;27.20;15.60;;;;;;;-143.54;100.00;59916.91;5092459;28;20024;-79
2023/12/14 06:49:08;;;;;;;28.83;16.20;;;;;;;-143.54;100.00;59916.91;5099630;28;20024;-79
2023/12/14 06:51:33;;;;;;;28.33;17.00;;;;;;;-143.54;100.00;59916.91;5092765;28;20371;-80
2023/12/14 06:53:59;;;;;;;28.25;17.23;;;;;;;-143.54;100.00;59916.91;5099610;28;20036;-79
2023/12/14 06:56:24;;;;;;;29.80;17.23;;;;;;;-143.54;100.00;59916.91;5094316;28;20077;-80
2023/12/14 06:58:49;;;;;;;30.20;17.48;;;;;;;-143.54;100.00;59916.91;5091875;28;20050;-79
2023/12/14 07:01:16;;;;;;;34.58;18.50;;;;;;;-143.54;100.00;59916.91;5093809;28;20042;-80
2023/12/14 07:03:44;;;;;;;36.60;18.33;;;;;;;-143.54;100.00;59916.91;5093137;28;20031;-80
2023/12/14 07:06:18;;;;;;;37.67;19.15;;;;;;;-143.54;100.00;59916.91;5092095;28;20067;-79
2023/12/14 07:08:44;;;;;;;41.67;19.30;;;;;;;-143.54;100.00;59916.91;5091617;28;20494;-80
2023/12/14 07:11:11;;;;;;;39.40;19.73;;;;;;;-143.54;100.00;59916.91;5092661;28;20451;-79
2023/12/14 07:13:37;;;;;;;43.28;20.20;;;;;;;-143.54;100.00;59916.91;5095470;28;20471;-80
2023/12/14 07:16:11;;;;;;;42.88;19.35;;;;;;;-143.54;100.00;59916.91;5097957;28;20024;-80
2023/12/14 07:18:38;;;;;;;39.13;19.88;;;;;;;-143.54;100.00;59916.91;5100027;28;20044;-80
2023/12/14 07:21:04;;;;;;;39.10;18.88;;;;;;;-143.54;100.00;59916.91;5091959;28;20068;-80
2023/12/14 07:23:30;;;;;;;47.17;19.88;;;;;;;-143.54;100.00;59916.91;5100256;28;20062;-80
2023/12/14 07:25:55;;;;;;;42.22;19.88;;;;;;;-143.54;100.00;59916.91;5093208;28;20071;-80
2023/12/14 07:28:21;;;;;;;38.60;19.15;;;;;;;-143.54;100.00;59916.91;5096214;28;20028;-80
2023/12/14 07:30:47;;;;;;;41.58;19.52;;;;;;;-143.54;100.00;59916.91;5097806;28;20107;-80
2023/12/14 07:33:14;;;;;;;39.45;19.58;;;;;;;-143.54;100.00;59916.91;5104171;28;20103;-80
2023/12/14 07:35:39;;;;;;;39.63;18.90;;;;;;;-143.54;100.00;59916.91;5095924;28;20039;-80
2023/12/14 07:38:04;;;;;;;40.70;17.63;;;;;;;-143.54;100.00;59916.91;5095512;28;20020;-79
2023/12/14 07:40:29;;;;;;;38.53;19.20;;;;;;;-143.54;100.00;59916.91;5096334;28;20532;-80
2023/12/14 07:42:55;;;;;;;37.25;18.67;;;;;;;-143.54;100.00;59916.91;5094496;28;20039;-80
2023/12/14 07:45:20;;;;;;;34.05;16.55;;;;;;;-143.54;100.00;59916.91;5096266;28;20088;-80
2023/12/14 07:47:46;;;;;;;37.13;18.52;;;;;;;-143.54;100.00;59916.91;5097948;28;20109;-80
2023/12/14 07:50:12;;;;;;;38.47;17.55;;;;;;;-143.54;100.00;59916.91;5098336;28;20016;-79
2023/12/14 07:52:37;;;;;;;35.42;16.85;;;;;;;-143.54;100.00;59916.91;5101204;28;20031;-80
2023/12/14 07:55:03;;;;;;;34.03;17.25;;;;;;;-143.54;100.00;59916.91;5098332;28;20059;-79
2023/12/14 07:57:29;;;;;;;31.75;15.73;;;;;;;-143.54;100.00;59916.91;5098971;28;20028;-80
2023/12/14 07:59:54;;;;;;;31.85;16.25;;;;;;;-143.54;100.00;59916.91;5095370;28;20031;-79
2023/12/14 08:02:19;;;;;;;34.60;16.25;;;;;;;-143.54;100.00;59916.91;5098008;28;20126;-79
2023/12/14 08:04:44;;;;;;;31.90;14.88;;;;;;;-143.54;100.00;59916.91;5100736;28;20023;-79
2023/12/14 08:07:10;;;;;;;31.52;15.07;;;;;;;-143.54;100.00;59916.91;5097849;28;20059;-80
2023/12/14 08:09:35;;;;;;;31.20;14.82;;;;;;;-143.54;100.00;59916.91;5095398;28;20116;-80
2023/12/14 08:12:00;;;;;;;29.17;14.40;;;;;;;-143.54;100.00;59916.91;5097441;28;20479;-80
2023/12/14 08:14:26;;;;;;;27.58;13.60;;;;;;;-143.54;100.00;59916.91;5098831;28;20032;-79
2023/12/14 08:16:51;;;;;;;27.48;14.32;;;;;;;-143.54;100.00;59916.91;5099022;28;20103;-80
2023/12/14 08:19:17;;;;;;;26.73;13.73;;;;;;;-143.54;100.00;59916.91;5103649;28;20019;-80
2023/12/14 08:21:42;;;;;;;24.85;14.00;;;;;;;-143.54;100.00;59916.91;5097765;28;20024;-80
2023/12/14 08:24:07;;;;;;;29.20;13.77;;;;;;;-143.54;100.00;59916.91;5105585;28;20020;-80
2023/12/14 08:26:33;;;;;;;26.33;13.90;;;;;;;-143.54;100.00;59916.91;5107218;28;20027;-80
2023/12/14 08:28:58;;;;;;;28.23;14.75;;;;;;;-143.54;100.00;59916.91;5106217;28;20024;-80
2023/12/14 08:31:24;;;;;;;27.10;13.98;;;;;;;-143.54;100.00;59916.91;5097425;28;20434;-80
2023/12/14 08:33:50;;;;;;;25.00;13.65;;;;;;;-143.54;100.00;59916.91;5106549;28;20649;-80
2023/12/14 08:36:16;;;;;;;25.63;13.32;;;;;;;-143.54;100.00;59916.91;5103657;28;20024;-80
2023/12/14 08:38:41;;;;;;;26.98;14.77;;;;;;;-143.54;100.00;59916.91;5095096;28;20081;-80
2023/12/14 08:41:07;;;;;;;22.08;13.90;;;;;;;-143.54;100.00;59916.91;5098496;28;20032;-80
2023/12/14 08:43:32;;;;;;;25.60;14.18;;;;;;;-143.54;100.00;59916.91;5096189;28;20032;-80
2023/12/14 08:45:57;;;;;;;24.05;14.38;;;;;;;-143.54;100.00;59916.91;5094568;28;20080;-80
2023/12/14 08:48:23;;;;;;;21.92;13.98;;;;;;;-143.54;100.00;59916.91;5094404;28;20356;-80
2023/12/14 08:50:49;;;;;;;21.42;13.43;;;;;;;-143.54;100.00;59916.91;5094632;28;20114;-80
2023/12/14 08:53:14;;;;;;;21.42;13.18;;;;;;;-143.54;100.00;59916.91;5093623;28;20144;-80
2023/12/14 08:55:39;;;;;;;26.33;13.32;;;;;;;-143.54;100.00;59916.91;5095082;28;20035;-80
2023/12/14 08:58:05;;;;;;;22.63;13.85;;;;;;;-143.54;100.00;59916.91;5102747;28;20431;-80
2023/12/14 09:00:30;;;;;;;22.40;13.68;;;;;;;-143.54;100.00;59916.91;5093156;28;20023;-80
2023/12/14 09:02:55;;;;;;;21.48;13.23;;;;;;;-143.54;100.00;59916.91;5097246;28;20154;-80
2023/12/14 09:05:21;;;;;;;22.92;13.13;;;;;;;-143.54;100.00;59916.91;5092914;28;20028;-79
2023/12/14 09:07:47;;;;;;;20.52;13.52;;;;;;;-143.54;100.00;59916.91;5093065;28;20028;-79
2023/12/14 09:10:12;;;;;;;20.85;12.05;;;;;;;-143.54;100.00;59916.91;5099955;28;20043;-79
2023/12/14 09:12:38;;;;;;;18.83;12.57;;;;;;;-143.54;100.00;59916.91;5090465;28;20034;-79
2023/12/14 09:15:04;;;;;;;20.75;12.80;;;;;;;-143.54;100.00;59916.91;5093545;28;20486;-79
2023/12/14 09:17:32;;;;;;;20.67;13.23;;;;;;;-143.54;100.00;59916.91;5092241;28;20114;-79
2023/12/14 09:20:01;;;;;;;20.92;12.90;;;;;;;-143.54;100.00;59916.91;5100173;28;20024;-79
2023/12/14 09:22:26;;;;;;;23.33;12.85;;;;;;;-143.54;100.00;59916.91;5088872;28;20022;-79
2023/12/14 09:24:52;;;;;;;18.95;12.20;;;;;;;-143.54;100.00;59916.91;5093546;28;20107;-79
2023/12/14 09:27:18;;;;;;;21.17;13.40;;;;;;;-143.54;100.00;59916.91;5097055;28;20046;-79
2023/12/14 09:29:43;;;;;;;20.15;12.70;;;;;;;-143.54;100.00;59916.91;5093486;28;20028;-80
2023/12/14 09:32:09;;;;;;;20.33;11.98;;;;;;;-143.54;100.00;59916.91;5099780;28;20020;-79
2023/12/14 09:34:34;;;;;;;19.55;12.45;;;;;;;-143.54;100.00;59916.91;5104735;28;20479;-78
2023/12/14 09:36:59;;;;;;;17.80;12.02;;;;;;;-143.54;100.00;59916.91;5100922;28;20032;-79
2023/12/14 09:39:25;;;;;;;20.55;12.82;;;;;;;-143.54;100.00;59916.91;5093772;28;20028;-79
2023/12/14 09:41:50;;;;;;;21.60;12.57;;;;;;;-143.54;100.00;59916.91;5093427;28;20032;-79
2023/12/14 09:44:16;;;;;;;18.33;11.85;;;;;;;-143.54;100.00;59916.91;5097897;28;20045;-79
2023/12/14 09:46:48;;;;;;;16.60;11.35;;;;;;;-143.54;100.00;59916.91;5093924;28;20086;-78
2023/12/14 09:49:15;;;;;;;19.33;11.68;;;;;;;-143.54;100.00;59916.91;5092740;28;20528;-79
2023/12/14 09:51:41;;;;;;;18.02;11.80;;;;;;;-143.54;100.00;59916.91;5092999;28;20383;-79
2023/12/14 09:54:06;;;;;;;17.40;11.93;;;;;;;-143.54;100.00;59916.91;5101864;28;20040;-79
2023/12/14 09:56:32;;;;;;;17.30;11.38;;;;;;;-143.54;100.00;59916.91;5095523;28;20030;-79
2023/12/14 09:58:58;;;;;;;17.55;11.10;;;;;;;-143.54;100.00;59916.91;5092957;28;20099;-79
2023/12/14 10:01:26;;;;;;;17.98;11.70;;;;;;;-143.54;100.00;59916.91;5093948;28;20106;-79
2023/12/14 10:04:12;;;;;;;19.05;11.65;;;;;;;-143.54;100.00;59916.91;5101072;28;20055;-79
2023/12/14 10:06:39;;;;;;;20.48;12.55;;;;;;;-143.54;100.00;59916.91;5092547;28;20029;-79
2023/12/14 10:09:09;;;;;;;17.33;11.45;;;;;;;-143.54;100.00;59916.91;5101439;28;20077;-79
2023/12/14 10:11:34;;;;;;;20.50;11.80;;;;;;;-143.54;100.00;59916.91;5101360;28;20096;-79
2023/12/14 10:13:59;;;;;;;20.73;12.43;;;;;;;-143.54;100.00;59916.91;5101290;28;20503;-79
2023/12/14 10:16:32;;;;;;;21.02;12.55;;;;;;;-143.54;100.00;59916.91;5099570;28;20038;-79
2023/12/14 10:18:58;;;;;;;20.35;12.23;;;;;;;-143.54;100.00;59916.91;5092667;28;20383;-79
2023/12/14 10:21:27;;;;;;;18.95;12.82;;;;;;;-143.54;100.00;59916.91;5093015;28;20114;-79
2023/12/14 10:23:56;;;;;;;21.08;11.98;;;;;;;-143.54;100.00;59916.91;5089366;28;20434;-78
2023/12/14 10:26:24;;;;;;;19.52;12.32;;;;;;;-143.54;100.00;59916.91;5085613;28;20028;-79
2023/12/14 10:28:51;;;;;;;21.90;11.93;;;;;;;-143.54;100.00;59916.91;5096834;28;20383;-79
2023/12/14 10:31:18;;;;;;;19.02;11.52;;;;;;;-143.54;100.00;59916.91;5092830;28;20024;-79
2023/12/14 10:33:43;;;;;;;16.05;10.48;;;;;;;-143.54;100.00;59916.91;5094817;28;20103;-79
2023/12/14 10:36:09;;;;;;;18.10;11.70;;;;;;;-143.54;100.00;59916.91;5104198;28;20169;-78
2023/12/14 10:38:38;;;;;;;19.02;11.80;;;;;;;-143.54;100.00;59916.91;5098699;28;20362;-79
2023/12/14 10:41:04;;;;;;;19.17;11.27;;;;;;;-143.54;100.00;59916.91;5098875;28;20410;-79
2023/12/14 10:43:32;;;;;;;16.40;11.05;;;;;;;-143.54;100.00;59916.91;5092885;28;20219;-79
2023/12/14 10:45:58;;;;;;;18.20;11.15;;;;;;;-143.54;100.00;59916.91;5101754;28;20031;-79
2023/12/14 10:48:24;;;;;;;20.23;11.60;;;;;;;-143.54;100.00;59916.91;5092511;28;20032;-78